BST,Max TemperatureF,Mean TemperatureF,Min TemperatureF,Max Dew PointF,MeanDew PointF,Min DewpointF,Max Humidity, Mean Humidity, Min Humidity, Max Sea Level PressureIn, Mean Sea Level PressureIn, Min Sea Level PressureIn, Max VisibilityMiles, Mean VisibilityMiles, Min VisibilityMiles, Max Wind SpeedMPH, Mean Wind SpeedMPH, Max Gust SpeedMPH,PrecipitationIn, CloudCover, Events, WindDirDegrees
2013-8-1,68,62,57,63,60,55,100,90,78,29.74,29.65,29.59,6,5,1,14,8,,0.00,7,Rain,119
2013-8-2,71,66,60,61,57,54,94,72,53,29.59,29.55,29.50,6,6,6,21,10,32,0.00,5,,176
2013-8-3,66,60,55,55,53,50,94,79,59,29.83,29.70,29.56,6,6,5,23,14,34,0.00,5,Rain,222
2013-8-4,68,60,51,55,52,48,94,77,56,29.89,29.87,29.83,6,6,6,16,10,,0.00,2,Rain,230
2013-8-5,68,58,48,55,51,46,100,79,52,29.89,29.81,29.77,6,6,6,15,5,,0.00,2,,277
2013-8-6,64,56,48,52,49,45,94,75,59,29.98,29.93,29.89,6,6,6,14,6,,0.00,4,,248
2013-8-7,68,60,51,57,53,50,94,81,60,30.06,30.00,29.95,6,6,6,7,4,,0.00,4,Rain,354
2013-8-8,68,56,44,55,51,43,100,79,56,30.06,30.00,29.89,6,6,2,13,3,,0.00,3,Fog-Rain,205
2013-8-9,64,58,53,57,53,48,100,80,59,30.12,29.99,29.86,6,6,2,16,7,,0.00,5,Rain,282
2013-8-10,62,56,50,52,50,48,94,80,63,30.12,30.08,29.98,6,6,4,15,7,,0.00,4,Rain,240
2013-8-11,62,56,51,52,51,48,94,81,63,29.98,29.90,29.86,6,6,3,20,10,31,0.00,5,Rain,252
2013-8-12,64,58,51,52,49,46,94,76,59,30.04,29.92,29.83,6,6,6,16,10,,0.00,4,Rain,267
2013-8-13,62,53,44,50,47,43,93,74,55,30.15,30.10,30.04,6,6,6,15,7,,0.00,3,,256
2013-8-14,68,62,55,61,56,50,94,85,64,30.15,30.05,29.92,6,6,2,13,5,,0.00,6,Rain,221
2013-8-15,68,64,60,63,60,59,100,92,78,29.92,29.81,29.74,6,6,3,18,10,,0.00,7,Rain,227
2013-8-16,64,58,53,59,54,50,100,84,68,29.86,29.83,29.74,6,6,4,17,9,,0.00,4,Rain,246
2013-8-17,68,60,53,61,55,50,94,85,77,29.83,29.54,29.42,6,5,1,20,10,31,0.00,5,Rain,221
2013-8-18,60,56,53,52,50,48,88,78,67,29.80,29.61,29.47,6,6,6,20,14,,0.00,4,Rain,254
2013-8-19,64,58,51,54,51,46,94,79,59,30.18,29.99,29.80,6,6,4,21,11,30,0.00,4,Rain,250
2013-8-20,66,60,53,57,54,52,94,84,68,30.24,30.20,30.12,6,6,4,15,8,,0.00,5,Rain,221
2013-8-21,68,62,55,61,58,54,100,88,73,30.12,30.05,30.01,6,6,3,15,8,,0.00,5,Rain,222
2013-8-22,68,62,57,61,58,55,100,87,73,30.12,30.07,29.98,6,5,1,16,7,23,0.00,5,Fog,76
2013-8-23,69,61,53,63,57,52,100,88,73,29.98,29.91,29.86,6,5,1,9,5,,0.00,5,Rain,138
2013-8-24,64,56,48,55,52,45,100,81,59,29.98,29.93,29.89,6,6,5,9,4,,0.00,5,,275
2013-8-25,73,57,41,55,50,41,100,78,53,30.15,30.08,29.98,6,6,6,7,3,,0.00,3,Fog,263
2013-8-26,66,56,46,57,53,45,100,85,72,30.18,30.15,30.12,6,6,6,12,5,,0.00,4,Fog,247
2013-8-27,66,58,46,59,54,45,94,87,73,30.21,30.12,30.09,6,6,3,14,5,,0.00,6,Rain,261
2013-8-28,62,55,48,52,48,45,94,79,59,30.21,30.17,30.09,6,6,6,13,5,,0.00,6,,243
2013-8-29,62,58,53,57,54,48,94,85,72,30.09,30.03,30.01,6,6,4,17,8,,0.00,6,Rain,243
2013-8-30,66,58,48,61,53,41,100,84,62,30.09,29.95,29.86,6,6,2,24,10,37,0.00,5,Rain,241
2013-8-31,62,55,48,48,45,39,87,70,45,30.30,30.21,30.09,6,6,6,18,12,28,0.00,3,Rain,258